Mc Dougal, Arkansas
Current Conditions -  °F | °C
As of 12:15 PM on Thursday 27 Nov 2014 (Local Time) from K4M9 Reporting Station
Clear Clear  
Wind Chill: 34°   Ceiling: Unl
Heat Index: 39°   Visibility: 10mi
Dew Point: 28°   Wind: 7mph
Humidity: 65%   Direction: 330°NNW
Pressure: 30.5"   Gusts: NA
Location:  36.4376°N, 90.3867°W
Report Text: K4M9 271815Z AUTO 33006KT 10SM CLR 04/M02 A3050 RMK AO2
Loading
Personal Weather Stations






























Interactive Weather Map New forecast layout! Learn more

10-Day Weather Forecast

Advertisements
Track Severe Weather on mobile